createdAt,value
2022-07-29T00:01:43.618Z,101139.95
2022-07-29T00:04:12.115Z,101138.23
2022-07-29T00:06:40.346Z,101136.15
2022-07-29T00:09:08.004Z,101139.10
2022-07-29T00:11:35.295Z,101139.89
2022-07-29T00:14:02.711Z,101140.45
2022-07-29T00:16:30.036Z,101140.95
2022-07-29T00:19:00.613Z,101144.92
2022-07-29T00:21:31.257Z,101145.20
2022-07-29T00:23:58.551Z,101147.92
2022-07-29T00:26:28.207Z,101145.81
2022-07-29T00:29:17.133Z,101151.09
2022-07-29T00:31:42.791Z,101148.27
2022-07-29T00:34:30.051Z,101145.98
2022-07-29T00:36:58.192Z,101142.48
2022-07-29T00:39:25.575Z,101145.20
2022-07-29T00:41:54.802Z,101141.69
2022-07-29T00:44:22.010Z,101143.83
2022-07-29T00:46:49.312Z,101144.85
2022-07-29T00:49:16.852Z,101141.99
2022-07-29T00:51:44.858Z,101139.84
2022-07-29T00:54:14.048Z,101140.32
2022-07-29T00:56:41.619Z,101140.27
2022-07-29T00:59:08.799Z,101138.69
2022-07-29T01:01:36.130Z,101134.26
2022-07-29T01:04:03.564Z,101137.90
2022-07-29T01:06:30.969Z,101135.91
2022-07-29T01:08:59.105Z,101133.46
2022-07-29T01:11:26.664Z,101134.04
2022-07-29T01:13:54.670Z,101137.34
2022-07-29T01:16:46.355Z,101139.60
2022-07-29T01:19:42.372Z,101142.52
2022-07-29T01:23:01.239Z,101141.24
2022-07-29T01:25:40.576Z,101139.70
2022-07-29T01:28:13.580Z,101143.07
2022-07-29T01:30:45.296Z,101141.69
2022-07-29T01:33:36.706Z,101142.17
2022-07-29T01:36:13.633Z,101137.15
2022-07-29T01:38:44.885Z,101147.27
2022-07-29T01:41:18.294Z,101143.60
2022-07-29T01:43:56.855Z,101143.13
2022-07-29T01:46:37.089Z,101143.28
2022-07-29T01:49:30.627Z,101145.48
2022-07-29T01:52:11.834Z,101148.73
2022-07-29T01:54:54.757Z,101146.78
2022-07-29T01:57:32.700Z,101143.66
2022-07-29T02:00:01.449Z,101145.84
2022-07-29T02:02:43.034Z,101147.04
2022-07-29T02:05:15.150Z,101147.62
2022-07-29T02:07:44.997Z,101146.41
2022-07-29T02:10:13.661Z,101152.48
2022-07-29T02:12:48.650Z,101155.36
2022-07-29T02:15:19.627Z,101154.67
2022-07-29T02:17:54.705Z,101152.78
2022-07-29T02:20:25.728Z,101158.70
2022-07-29T02:22:55.788Z,101162.03
2022-07-29T02:25:25.417Z,101165.91
2022-07-29T02:28:07.177Z,101170.33
2022-07-29T02:30:40.963Z,101171.91
2022-07-29T02:33:13.065Z,101175.63
2022-07-29T02:35:41.344Z,101175.73
2022-07-29T02:38:33.596Z,101176.35
2022-07-29T02:41:15.857Z,101173.17
2022-07-29T02:43:45.963Z,101172.35
2022-07-29T02:46:28.870Z,101170.77
2022-07-29T02:49:53.085Z,101172.10
2022-07-29T02:52:38.514Z,101178.09
2022-07-29T02:55:17.109Z,101181.16
2022-07-29T02:57:54.784Z,101181.57
2022-07-29T03:00:28.584Z,101182.73
2022-07-29T03:02:59.969Z,101181.21
2022-07-29T03:05:28.133Z,101187.02
2022-07-29T03:08:04.500Z,101184.02
2022-07-29T03:10:32.284Z,101187.89
2022-07-29T03:13:00.894Z,101195.12
2022-07-29T03:15:28.442Z,101192.24
2022-07-29T03:17:56.315Z,101190.92
2022-07-29T03:20:24.139Z,101191.73
2022-07-29T03:22:51.687Z,101192.09
2022-07-29T03:25:20.879Z,101192.86
2022-07-29T03:27:48.701Z,101188.04
2022-07-29T03:30:21.591Z,101188.55
2022-07-29T03:32:52.022Z,101190.07
2022-07-29T03:35:21.173Z,101192.23
2022-07-29T03:37:49.558Z,101192.39
2022-07-29T03:40:32.091Z,101192.00
2022-07-29T03:43:02.676Z,101190.60
2022-07-29T03:45:33.410Z,101189.84
2022-07-29T03:48:08.347Z,101187.47
2022-07-29T03:50:36.460Z,101192.04
2022-07-29T03:53:04.181Z,101192.29
2022-07-29T03:55:40.724Z,101191.97
2022-07-29T03:58:08.808Z,101191.77
2022-07-29T04:00:38.053Z,101200.36
2022-07-29T04:03:06.188Z,101205.45
2022-07-29T04:05:39.001Z,101204.91
2022-07-29T04:08:06.402Z,101206.63
2022-07-29T04:10:33.987Z,101210.23
2022-07-29T04:13:01.712Z,101211.91
2022-07-29T04:15:31.367Z,101214.08
2022-07-29T04:17:59.914Z,101214.54
2022-07-29T04:20:27.369Z,101216.48
2022-07-29T04:22:54.977Z,101214.85
2022-07-29T04:25:22.255Z,101213.98
2022-07-29T04:28:01.415Z,101216.77
2022-07-29T04:30:32.566Z,101217.05
2022-07-29T04:33:02.108Z,101219.66
2022-07-29T04:35:30.629Z,101221.82
2022-07-29T04:38:07.781Z,101223.66
2022-07-29T04:40:43.003Z,101223.92
2022-07-29T04:43:10.393Z,101221.99
2022-07-29T04:45:40.190Z,101223.58
2022-07-29T04:48:07.479Z,101225.70
2022-07-29T04:50:34.880Z,101222.52
2022-07-29T04:53:02.352Z,101223.45
2022-07-29T04:55:29.627Z,101218.77
2022-07-29T04:57:57.056Z,101222.76
2022-07-29T05:00:28.141Z,101222.86
2022-07-29T05:03:01.166Z,101222.87
2022-07-29T05:05:28.519Z,101224.15
2022-07-29T05:07:55.830Z,101224.72
2022-07-29T05:10:23.765Z,101217.33
2022-07-29T05:12:51.217Z,101223.80
2022-07-29T05:15:18.896Z,101226.28
2022-07-29T05:17:46.171Z,101227.41
2022-07-29T05:20:13.545Z,101233.31
2022-07-29T05:22:40.822Z,101231.86
2022-07-29T05:25:09.615Z,101234.10
2022-07-29T05:27:37.404Z,101231.99
2022-07-29T05:30:05.472Z,101234.65
2022-07-29T05:32:32.771Z,101234.91
2022-07-29T05:35:00.042Z,101232.70
2022-07-29T05:37:27.273Z,101231.09
2022-07-29T05:39:56.867Z,101233.28
2022-07-29T05:42:26.314Z,101239.98
2022-07-29T05:44:54.066Z,101239.52
2022-07-29T05:47:21.821Z,101241.48
2022-07-29T05:49:49.315Z,101241.74
2022-07-29T05:52:17.045Z,101239.76
2022-07-29T05:54:44.412Z,101240.85
2022-07-29T05:57:22.993Z,101245.18
2022-07-29T05:59:51.549Z,101243.80
2022-07-29T06:02:19.357Z,101244.08
2022-07-29T06:04:46.771Z,101247.54
2022-07-29T06:07:14.141Z,101257.48
2022-07-29T06:09:41.353Z,101258.49
2022-07-29T06:12:09.094Z,101264.02
2022-07-29T06:14:38.542Z,101265.83
2022-07-29T06:17:06.270Z,101265.64
2022-07-29T06:19:36.862Z,101266.83
2022-07-29T06:22:05.154Z,101263.17
2022-07-29T06:24:32.318Z,101262.55
2022-07-29T06:26:59.610Z,101263.98
2022-07-29T06:29:26.890Z,101263.45
2022-07-29T06:31:54.502Z,101264.96
2022-07-29T06:34:21.791Z,101264.80
2022-07-29T06:36:50.279Z,101265.36
2022-07-29T06:39:18.092Z,101263.39
2022-07-29T06:41:50.010Z,101267.45
2022-07-29T06:44:18.972Z,101270.62
2022-07-29T06:46:49.616Z,101274.52
2022-07-29T06:49:17.141Z,101272.77
2022-07-29T06:51:44.673Z,101276.23
2022-07-29T06:54:11.904Z,101277.35
2022-07-29T06:56:41.714Z,101276.83
2022-07-29T06:59:10.670Z,101275.93
2022-07-29T07:01:40.095Z,101277.34
2022-07-29T07:04:09.186Z,101278.36
2022-07-29T07:06:37.756Z,101281.42
2022-07-29T07:09:05.133Z,101284.13
2022-07-29T07:11:32.593Z,101280.30
2022-07-29T07:14:03.494Z,101282.36
2022-07-29T07:16:32.221Z,101285.61
2022-07-29T07:19:00.401Z,101286.70
2022-07-29T07:21:30.363Z,101291.27
2022-07-29T07:24:00.342Z,101296.00
2022-07-29T07:26:28.794Z,101298.73
2022-07-29T07:28:57.069Z,101299.58
2022-07-29T07:31:24.540Z,101300.97
2022-07-29T07:33:52.608Z,101304.60
2022-07-29T07:36:20.249Z,101305.58
2022-07-29T07:38:47.489Z,101303.38
2022-07-29T07:41:14.640Z,101304.05
2022-07-29T07:43:41.804Z,101302.40
2022-07-29T07:46:09.098Z,101303.47
2022-07-29T07:48:36.588Z,101303.02
2022-07-29T07:51:04.139Z,101305.27
2022-07-29T07:53:31.553Z,101307.98
2022-07-29T07:56:10.397Z,101313.17
2022-07-29T07:58:39.228Z,101314.98
2022-07-29T08:01:06.791Z,101313.35
2022-07-29T08:03:34.506Z,101314.77
2022-07-29T08:06:03.263Z,101313.81
2022-07-29T08:08:30.625Z,101318.98
2022-07-29T08:10:57.938Z,101322.98
2022-07-29T08:13:30.834Z,101327.23
2022-07-29T08:16:01.085Z,101328.01
2022-07-29T08:18:31.554Z,101335.83
2022-07-29T08:20:59.465Z,101338.37
2022-07-29T08:23:29.320Z,101337.34
2022-07-29T08:26:00.226Z,101337.27
2022-07-29T08:28:27.613Z,101341.02
2022-07-29T08:30:54.893Z,101345.36
2022-07-29T08:33:22.154Z,101350.88
2022-07-29T08:35:50.838Z,101353.19
2022-07-29T08:38:18.063Z,101355.28
2022-07-29T08:40:46.971Z,101359.20
2022-07-29T08:43:14.310Z,101358.94
2022-07-29T08:45:48.570Z,101359.70
2022-07-29T08:48:18.971Z,101358.40
2022-07-29T08:50:48.897Z,101356.82
2022-07-29T08:53:19.030Z,101360.25
2022-07-29T08:55:50.047Z,101357.09
2022-07-29T08:58:17.866Z,101357.17
2022-07-29T09:00:55.369Z,101354.96
2022-07-29T09:03:31.989Z,101355.41
2022-07-29T09:06:00.657Z,101360.87
2022-07-29T09:08:28.682Z,101362.77
2022-07-29T09:11:00.574Z,101367.14
2022-07-29T09:13:31.394Z,101365.34
2022-07-29T09:15:58.632Z,101364.64
2022-07-29T09:18:41.072Z,101366.17
2022-07-29T09:21:34.266Z,101367.74
2022-07-29T09:24:09.172Z,101366.80
2022-07-29T09:26:42.393Z,101372.52
2022-07-29T09:29:23.807Z,101373.42
2022-07-29T09:31:54.828Z,101372.00
2022-07-29T09:34:30.801Z,101374.91
2022-07-29T09:36:58.911Z,101372.73
2022-07-29T09:39:38.322Z,101373.77
2022-07-29T09:42:06.963Z,101369.77
2022-07-29T09:44:52.408Z,101369.30
2022-07-29T09:47:24.335Z,101368.52
2022-07-29T09:49:59.623Z,101365.05
2022-07-29T09:52:29.135Z,101365.46
2022-07-29T09:55:13.839Z,101364.75
2022-07-29T09:57:47.753Z,101364.11
2022-07-29T10:00:19.266Z,101364.80
2022-07-29T10:02:48.108Z,101361.05
2022-07-29T10:05:25.501Z,101360.45
2022-07-29T10:07:57.940Z,101360.46
2022-07-29T10:10:32.214Z,101355.31
2022-07-29T10:13:07.971Z,101357.43
2022-07-29T10:15:45.294Z,101359.03
2022-07-29T10:18:14.665Z,101355.21
2022-07-29T10:20:42.175Z,101356.77
2022-07-29T10:23:10.172Z,101355.00
2022-07-29T10:25:37.538Z,101352.73
2022-07-29T10:28:07.266Z,101349.83
2022-07-29T10:30:35.489Z,101348.43
2022-07-29T10:33:19.106Z,101346.52
2022-07-29T10:36:43.383Z,101345.04
2022-07-29T10:39:54.133Z,101348.71
2022-07-29T10:42:34.571Z,101351.59
2022-07-29T10:45:05.069Z,101349.53
2022-07-29T10:47:32.596Z,101351.70
2022-07-29T10:50:06.688Z,101350.85
2022-07-29T10:52:53.310Z,101349.27
2022-07-29T10:55:43.342Z,101349.30
2022-07-29T10:58:20.880Z,101347.96
2022-07-29T11:00:51.607Z,101346.52
2022-07-29T11:03:53.744Z,101344.80
2022-07-29T11:06:26.544Z,101342.15
2022-07-29T11:09:34.883Z,101338.51
2022-07-29T11:12:39.341Z,101340.82
2022-07-29T11:15:19.820Z,101344.66
2022-07-29T11:17:54.590Z,101346.50
2022-07-29T11:20:54.318Z,101346.38
2022-07-29T11:23:40.375Z,101351.95
2022-07-29T11:26:25.568Z,101353.67
2022-07-29T11:28:55.759Z,101348.84
2022-07-29T11:31:56.359Z,101353.39
2022-07-29T11:34:34.870Z,101348.59
2022-07-29T11:37:17.758Z,101349.92
2022-07-29T11:39:55.224Z,101353.77
2022-07-29T11:42:32.513Z,101353.66
2022-07-29T11:45:41.441Z,101350.30
2022-07-29T11:48:28.500Z,101345.23
2022-07-29T11:50:50.203Z,101341.55
2022-07-29T11:53:18.124Z,101342.51
2022-07-29T11:55:51.236Z,101337.21
2022-07-29T11:58:25.246Z,101334.38
2022-07-29T12:00:56.075Z,101328.02
2022-07-29T12:03:34.922Z,101320.75
2022-07-29T12:06:18.193Z,101310.23
2022-07-29T12:08:46.252Z,101299.75
2022-07-29T12:11:21.703Z,101299.45
2022-07-29T12:13:51.675Z,101299.92
2022-07-29T12:16:25.903Z,101303.98
2022-07-29T12:19:03.284Z,101302.05
2022-07-29T12:21:54.060Z,101295.23
2022-07-29T12:24:27.433Z,101295.80
2022-07-29T12:26:58.410Z,101296.64
2022-07-29T12:29:35.637Z,101294.21
2022-07-29T12:32:06.944Z,101291.74
2022-07-29T12:34:42.607Z,101292.20
2022-07-29T12:37:10.722Z,101283.02
2022-07-29T12:39:38.545Z,101279.69
2022-07-29T12:42:14.971Z,101276.80
2022-07-29T12:44:51.642Z,101272.91
2022-07-29T12:47:20.862Z,101268.47
2022-07-29T12:49:49.728Z,101265.21
2022-07-29T12:52:35.020Z,101261.67
2022-07-29T12:55:03.590Z,101260.21
2022-07-29T12:57:32.579Z,101251.40
2022-07-29T13:00:08.755Z,101248.45
2022-07-29T13:02:37.606Z,101247.64
2022-07-29T13:05:08.694Z,101247.69
2022-07-29T13:07:55.698Z,101247.04
2022-07-29T13:10:25.500Z,101248.05
2022-07-29T13:13:12.001Z,101244.04
2022-07-29T13:15:43.209Z,101238.30
2022-07-29T13:18:34.294Z,101237.02
2022-07-29T13:21:13.886Z,101239.80
2022-07-29T13:23:41.753Z,101238.60
2022-07-29T13:26:12.149Z,101240.55
2022-07-29T13:28:39.494Z,101240.69
2022-07-29T13:31:06.881Z,101238.30
2022-07-29T13:33:34.278Z,101241.38
2022-07-29T13:36:01.570Z,101240.48
2022-07-29T13:38:31.159Z,101241.66
2022-07-29T13:40:59.302Z,101239.02
2022-07-29T13:43:26.668Z,101235.80
2022-07-29T13:45:54.422Z,101233.42
2022-07-29T13:48:21.853Z,101233.92
2022-07-29T13:50:49.215Z,101228.22
2022-07-29T13:53:17.844Z,101225.75
2022-07-29T13:55:45.580Z,101230.52
2022-07-29T13:58:13.136Z,101226.30
2022-07-29T14:00:40.399Z,101228.82
2022-07-29T14:03:07.727Z,101223.09
2022-07-29T14:05:34.986Z,101215.83
2022-07-29T14:08:02.417Z,101214.48
2022-07-29T14:10:29.882Z,101211.69
2022-07-29T14:12:58.710Z,101206.27
2022-07-29T14:15:26.108Z,101198.84
2022-07-29T14:17:53.459Z,101198.60
2022-07-29T14:20:20.750Z,101194.02
2022-07-29T14:22:49.041Z,101192.58
2022-07-29T14:25:17.251Z,101189.59
2022-07-29T14:27:44.788Z,101185.46
2022-07-29T14:30:13.234Z,101181.23
2022-07-29T14:32:41.104Z,101179.71
2022-07-29T14:35:10.169Z,101176.30
2022-07-29T14:37:40.346Z,101177.58
2022-07-29T14:40:10.146Z,101176.03
2022-07-29T14:42:49.335Z,101177.32
2022-07-29T14:45:19.524Z,101175.83
2022-07-29T14:47:47.231Z,101174.63
2022-07-29T14:50:14.770Z,101174.89
2022-07-29T14:52:42.297Z,101170.14
2022-07-29T14:55:20.102Z,101172.18
2022-07-29T14:58:06.414Z,101168.86
2022-07-29T15:00:38.315Z,101166.05
2022-07-29T15:03:06.226Z,101162.38
2022-07-29T15:05:33.621Z,101161.23
2022-07-29T15:08:01.018Z,101159.77
2022-07-29T15:10:30.293Z,101154.79
2022-07-29T15:12:57.903Z,101152.36
2022-07-29T15:15:26.443Z,101155.73
2022-07-29T15:17:53.811Z,101153.33
2022-07-29T15:20:22.662Z,101155.79
2022-07-29T15:22:59.211Z,101156.83
2022-07-29T15:25:28.249Z,101156.05
2022-07-29T15:28:00.787Z,101156.67
2022-07-29T15:30:33.352Z,101150.99
2022-07-29T15:33:03.534Z,101149.50
2022-07-29T15:35:40.312Z,101147.11
2022-07-29T15:38:08.844Z,101150.59
2022-07-29T15:40:42.022Z,101155.16
2022-07-29T15:43:09.901Z,101157.11
2022-07-29T15:45:40.610Z,101154.55
2022-07-29T15:48:10.036Z,101156.50
2022-07-29T15:50:42.471Z,101162.34
2022-07-29T15:53:14.774Z,101166.46
2022-07-29T15:55:42.056Z,101168.71
2022-07-29T15:58:12.054Z,101169.93
2022-07-29T16:00:39.414Z,101169.95
2022-07-29T16:03:06.812Z,101171.86
2022-07-29T16:05:34.363Z,101172.89
2022-07-29T16:08:01.809Z,101175.67
2022-07-29T16:10:29.454Z,101175.21
2022-07-29T16:12:57.063Z,101181.60
2022-07-29T16:15:24.602Z,101180.05
2022-07-29T16:17:51.965Z,101180.83
2022-07-29T16:20:20.423Z,101181.20
2022-07-29T16:22:49.766Z,101179.96
2022-07-29T16:25:17.088Z,101179.43
2022-07-29T16:27:44.563Z,101179.21
2022-07-29T16:30:12.131Z,101177.52
2022-07-29T16:32:39.868Z,101173.82
2022-07-29T16:35:08.369Z,101170.55
2022-07-29T16:37:36.854Z,101168.67
2022-07-29T16:40:07.451Z,101165.90
2022-07-29T16:42:47.547Z,101163.72
2022-07-29T16:45:17.972Z,101167.41
2022-07-29T16:47:48.848Z,101167.44
2022-07-29T16:50:17.647Z,101169.14
2022-07-29T16:52:45.246Z,101168.38
2022-07-29T16:55:12.900Z,101171.58
2022-07-29T16:57:41.687Z,101168.11
2022-07-29T17:00:10.755Z,101164.94
2022-07-29T17:02:38.269Z,101159.21
2022-07-29T17:05:08.044Z,101160.66
2022-07-29T17:07:35.539Z,101162.46
2022-07-29T17:10:04.737Z,101162.64
2022-07-29T17:12:32.420Z,101157.48
2022-07-29T17:15:00.954Z,101159.86
2022-07-29T17:17:39.453Z,101157.99
2022-07-29T17:20:17.496Z,101154.58
2022-07-29T17:22:45.019Z,101151.33
2022-07-29T17:25:13.318Z,101149.23
2022-07-29T17:27:50.409Z,101143.83
2022-07-29T17:30:18.280Z,101147.33
2022-07-29T17:32:45.655Z,101142.48
2022-07-29T17:35:32.037Z,101148.16
2022-07-29T17:37:59.574Z,101148.47
2022-07-29T17:40:27.953Z,101146.59
2022-07-29T17:42:55.348Z,101147.23
2022-07-29T17:45:22.660Z,101150.04
2022-07-29T17:47:52.350Z,101152.06
2022-07-29T17:50:19.768Z,101154.55
2022-07-29T17:52:47.072Z,101152.75
2022-07-29T17:55:14.684Z,101151.77
2022-07-29T17:57:43.155Z,101151.58
2022-07-29T18:00:11.004Z,101150.69
2022-07-29T18:02:38.670Z,101150.02
2022-07-29T18:05:08.438Z,101148.73
2022-07-29T18:07:36.105Z,101149.29
2022-07-29T18:10:04.014Z,101146.71
2022-07-29T18:12:35.307Z,101151.48
2022-07-29T18:15:03.006Z,101152.36
2022-07-29T18:17:48.446Z,101150.66
2022-07-29T18:20:20.439Z,101147.02
2022-07-29T18:22:47.839Z,101144.73
2022-07-29T18:25:15.373Z,101147.16
2022-07-29T18:27:42.825Z,101146.59
2022-07-29T18:30:10.721Z,101143.93
2022-07-29T18:32:38.276Z,101149.05
2022-07-29T18:35:06.223Z,101149.61
2022-07-29T18:38:02.311Z,101153.23
2022-07-29T18:40:25.270Z,101158.16
2022-07-29T18:42:52.987Z,101157.05
2022-07-29T18:45:20.592Z,101157.34
2022-07-29T18:47:49.037Z,101162.42
2022-07-29T18:50:16.852Z,101165.20
2022-07-29T18:52:47.917Z,101165.94
2022-07-29T18:55:15.311Z,101167.01
2022-07-29T18:57:55.522Z,101169.78
2022-07-29T19:00:25.708Z,101170.77
2022-07-29T19:02:53.567Z,101171.50
2022-07-29T19:05:22.497Z,101173.44
2022-07-29T19:07:50.652Z,101174.20
2022-07-29T19:10:17.964Z,101176.83
2022-07-29T19:12:45.635Z,101182.66
2022-07-29T19:15:12.902Z,101192.38
2022-07-29T19:17:48.878Z,101187.73
2022-07-29T19:20:16.997Z,101188.04
2022-07-29T19:22:44.921Z,101187.36
2022-07-29T19:25:13.001Z,101187.26
2022-07-29T19:27:42.724Z,101186.14
2022-07-29T19:30:10.803Z,101191.91
2022-07-29T19:32:38.379Z,101196.98
2022-07-29T19:35:24.739Z,101199.95
2022-07-29T19:37:53.756Z,101204.17
2022-07-29T19:40:21.723Z,101201.94
2022-07-29T19:42:51.086Z,101206.63
2022-07-29T19:45:24.425Z,101205.02
2022-07-29T19:47:52.538Z,101203.11
2022-07-29T19:50:22.534Z,101197.67
2022-07-29T19:52:50.400Z,101197.84
2022-07-29T19:55:19.331Z,101196.67
2022-07-29T19:57:47.018Z,101196.43
2022-07-29T20:00:16.515Z,101198.55
2022-07-29T20:02:44.224Z,101197.41
2022-07-29T20:05:12.271Z,101191.75
2022-07-29T20:07:39.754Z,101190.61
2022-07-29T20:10:08.824Z,101190.39
2022-07-29T20:12:37.528Z,101187.84
2022-07-29T20:15:06.922Z,101187.58
2022-07-29T20:17:34.277Z,101189.60
2022-07-29T20:20:09.107Z,101185.70
2022-07-29T20:22:37.030Z,101187.81
2022-07-29T20:25:09.315Z,101189.95
2022-07-29T20:27:40.028Z,101185.63
2022-07-29T20:30:08.559Z,101181.09
2022-07-29T20:32:35.935Z,101178.71
2022-07-29T20:35:03.589Z,101180.23
2022-07-29T20:37:30.911Z,101178.52
2022-07-29T20:39:58.265Z,101178.54
2022-07-29T20:42:25.585Z,101183.04
2022-07-29T20:44:53.470Z,101182.73
2022-07-29T20:47:21.967Z,101184.30
2022-07-29T20:49:49.252Z,101182.51
2022-07-29T20:52:21.287Z,101182.94
2022-07-29T20:54:48.591Z,101186.27
2022-07-29T20:57:16.358Z,101193.67
2022-07-29T20:59:45.811Z,101191.06
2022-07-29T21:02:13.512Z,101188.09
2022-07-29T21:04:43.127Z,101190.54
2022-07-29T21:07:10.647Z,101190.17
2022-07-29T21:09:37.904Z,101192.78
2022-07-29T21:12:06.473Z,101187.27
2022-07-29T21:14:36.650Z,101179.36
2022-07-29T21:17:05.895Z,101179.23
2022-07-29T21:19:36.484Z,101178.66
2022-07-29T21:22:03.861Z,101184.90
2022-07-29T21:24:31.593Z,101175.85
2022-07-29T21:27:21.789Z,101168.30
2022-07-29T21:29:49.405Z,101166.48
2022-07-29T21:32:27.569Z,101163.56
2022-07-29T21:34:57.886Z,101156.77
2022-07-29T21:37:25.299Z,101151.14
2022-07-29T21:39:52.725Z,101149.87
2022-07-29T21:42:19.962Z,101145.27
2022-07-29T21:44:47.245Z,101145.31
2022-07-29T21:47:14.679Z,101145.54
2022-07-29T21:49:42.137Z,101144.66
2022-07-29T21:52:10.173Z,101143.96
2022-07-29T21:54:38.885Z,101145.47
2022-07-29T21:57:06.347Z,101140.91
2022-07-29T21:59:33.819Z,101141.84
2022-07-29T22:02:01.258Z,101143.58
2022-07-29T22:04:29.731Z,101143.88
2022-07-29T22:06:58.301Z,101141.45
2022-07-29T22:09:26.425Z,101137.91
2022-07-29T22:11:54.750Z,101133.29
2022-07-29T22:14:22.115Z,101134.18
2022-07-29T22:16:49.273Z,101131.03
2022-07-29T22:19:16.758Z,101126.48
2022-07-29T22:21:44.197Z,101127.84
2022-07-29T22:24:11.579Z,101126.69
2022-07-29T22:26:38.979Z,101125.13
2022-07-29T22:29:06.340Z,101124.19
2022-07-29T22:31:36.609Z,101120.73
2022-07-29T22:34:11.179Z,101121.65
2022-07-29T22:36:40.250Z,101122.44
2022-07-29T22:39:07.634Z,101123.35
2022-07-29T22:41:35.374Z,101119.54
2022-07-29T22:44:03.359Z,101118.58
2022-07-29T22:46:32.389Z,101116.91
2022-07-29T22:49:00.945Z,101116.64
2022-07-29T22:51:28.367Z,101117.45
2022-07-29T22:53:55.639Z,101118.92
2022-07-29T22:56:23.054Z,101118.05
2022-07-29T22:58:50.351Z,101120.42
2022-07-29T23:01:17.869Z,101117.08
2022-07-29T23:04:05.674Z,101120.29
2022-07-29T23:06:33.703Z,101114.58
2022-07-29T23:09:01.205Z,101115.86
2022-07-29T23:11:28.455Z,101107.40
2022-07-29T23:13:55.725Z,101107.42
2022-07-29T23:16:26.296Z,101107.34
2022-07-29T23:18:54.889Z,101105.05
2022-07-29T23:21:22.628Z,101103.77
2022-07-29T23:23:50.036Z,101098.48
2022-07-29T23:26:17.219Z,101096.73
2022-07-29T23:28:45.490Z,101094.52
2022-07-29T23:31:13.115Z,101088.41
2022-07-29T23:33:43.438Z,101081.89
2022-07-29T23:36:10.698Z,101078.96
2022-07-29T23:38:41.040Z,101082.90
2022-07-29T23:41:09.250Z,101081.24
2022-07-29T23:43:37.572Z,101081.59
2022-07-29T23:46:05.694Z,101082.40
2022-07-29T23:48:34.011Z,101082.16
2022-07-29T23:51:01.383Z,101079.37
2022-07-29T23:53:28.749Z,101082.77
2022-07-29T23:55:56.989Z,101089.79
2022-07-29T23:58:24.352Z,101093.83
